Time;durP1;ratioP1;P1;durP2;ratioP2;P2;SDS_P1;SDS_P2;PMS_P1;PMS_P2;Temp;Humidity;BMP_temperature;BMP_pressure;BME280_temperature;BME280_humidity;BME280_pressure;Samples;Min_cycle;Max_cycle;Signal;HPM_P1;HPM_P2
2022/01/29 00:01:03;;;;;;;40.83;19.05;;;6.30;99.90;;;;;;4919799;29;20053;-76
2022/01/29 00:03:32;;;;;;;36.63;19.02;;;6.20;99.90;;;;;;4919737;29;20472;-77
2022/01/29 00:05:59;;;;;;;38.83;18.67;;;6.30;99.90;;;;;;4936593;29;20043;-78
2022/01/29 00:08:25;;;;;;;39.55;19.17;;;6.30;99.90;;;;;;4936323;29;20044;-78
2022/01/29 00:10:56;;;;;;;35.30;17.50;;;6.30;99.90;;;;;;4936250;29;20389;-77
2022/01/29 00:13:22;;;;;;;40.55;18.88;;;7.00;99.90;;;;;;4936692;29;20052;-78
2022/01/29 00:15:47;;;;;;;41.33;20.00;;;6.30;99.90;;;;;;4919021;29;20050;-77
2022/01/29 00:18:13;;;;;;;32.45;18.13;;;6.30;99.90;;;;;;4903878;29;20080;-78
2022/01/29 00:20:39;;;;;;;41.08;19.52;;;6.30;99.90;;;;;;4919250;29;20054;-78
2022/01/29 00:23:04;;;;;;;33.55;18.25;;;6.30;99.90;;;;;;4936428;29;20040;-79
2022/01/29 00:25:30;;;;;;;37.45;18.33;;;6.30;99.90;;;;;;4918538;29;20060;-77
2022/01/29 00:27:57;;;;;;;36.05;18.48;;;6.30;99.90;;;;;;4936626;29;20036;-78
2022/01/29 00:30:30;;;;;;;38.53;18.58;;;6.30;99.90;;;;;;4936552;29;20079;-78
2022/01/29 00:32:56;;;;;;;35.97;17.63;;;6.90;99.90;;;;;;4936103;29;20522;-76
2022/01/29 00:35:21;;;;;;;37.67;18.50;;;6.30;99.90;;;;;;4936128;29;20039;-79
2022/01/29 00:37:47;;;;;;;46.53;20.67;;;6.40;99.90;;;;;;4936161;29;20044;-78
2022/01/29 00:40:13;;;;;;;38.80;19.83;;;6.40;99.90;;;;;;4934756;29;20047;-78
2022/01/29 00:42:39;;;;;;;41.85;21.23;;;6.40;99.90;;;;;;4935831;29;20044;-78
2022/01/29 00:45:06;;;;;;;44.50;19.50;;;6.40;99.90;;;;;;4936096;29;20048;-79
2022/01/29 00:47:32;;;;;;;42.53;18.90;;;6.40;99.90;;;;;;4935758;29;20119;-77
2022/01/29 00:49:58;;;;;;;34.88;17.90;;;6.40;99.90;;;;;;4935928;29;20496;-78
2022/01/29 00:52:23;;;;;;;34.83;17.95;;;6.40;99.90;;;;;;4935837;29;20119;-78
2022/01/29 00:54:50;;;;;;;38.33;19.95;;;6.40;99.90;;;;;;4935557;29;20439;-80
2022/01/29 00:57:16;;;;;;;34.10;19.48;;;6.40;99.90;;;;;;4918402;29;20091;-78
2022/01/29 00:59:41;;;;;;;45.03;22.70;;;6.40;99.90;;;;;;4935861;29;20055;-79
2022/01/29 01:02:09;;;;;;;41.05;20.33;;;6.40;99.90;;;;;;4935663;29;20399;-78
2022/01/29 01:04:38;;;;;;;40.20;23.52;;;6.30;99.90;;;;;;4935783;29;20054;-79
2022/01/29 01:07:08;;;;;;;45.67;22.70;;;6.30;99.90;;;;;;4935825;29;20481;-78
2022/01/29 01:09:34;;;;;;;40.72;22.98;;;6.30;99.90;;;;;;4918483;29;20047;-79
2022/01/29 01:12:00;;;;;;;46.65;26.48;;;6.30;99.90;;;;;;4935089;29;20058;-78
2022/01/29 01:14:26;;;;;;;50.70;25.40;;;6.40;99.90;;;;;;4935548;29;20048;-79
2022/01/29 01:16:51;;;;;;;47.25;26.48;;;6.30;99.90;;;;;;4935689;29;20043;-78
2022/01/29 01:19:17;;;;;;;52.95;27.15;;;6.30;99.90;;;;;;4935509;29;20138;-78
2022/01/29 01:21:43;;;;;;;47.53;26.38;;;6.30;99.90;;;;;;4935526;29;20043;-79
2022/01/29 01:24:08;;;;;;;42.85;25.05;;;6.20;99.90;;;;;;4935419;29;20476;-78
2022/01/29 01:26:34;;;;;;;46.85;27.20;;;6.20;99.90;;;;;;4935530;29;20044;-79
2022/01/29 01:29:00;;;;;;;44.40;24.77;;;6.20;99.90;;;;;;4917822;29;20048;-78
2022/01/29 01:31:25;;;;;;;49.25;26.60;;;6.20;99.90;;;;;;4935424;29;20056;-79
2022/01/29 01:33:51;;;;;;;54.22;27.52;;;6.20;99.90;;;;;;4918512;29;20392;-78
2022/01/29 01:36:21;;;;;;;47.33;26.08;;;6.20;99.90;;;;;;4935423;29;20495;-78
2022/01/29 01:38:54;;;;;;;50.88;27.83;;;6.20;99.90;;;;;;4935170;29;20098;-79
2022/01/29 01:41:24;;;;;;;48.70;27.10;;;6.20;99.90;;;;;;4935364;29;20048;-78
2022/01/29 01:43:50;;;;;;;43.45;24.85;;;6.30;99.90;;;;;;4934768;29;20044;-78
2022/01/29 01:46:16;;;;;;;45.33;26.75;;;6.30;99.90;;;;;;4935290;29;20047;-78
2022/01/29 01:48:42;;;;;;;48.67;26.77;;;6.30;99.90;;;;;;4918286;29;20055;-78
2022/01/29 01:51:08;;;;;;;49.00;26.95;;;6.30;99.90;;;;;;4935625;29;20044;-78
2022/01/29 01:53:34;;;;;;;44.40;24.25;;;6.30;99.90;;;;;;4938829;29;20055;-78
2022/01/29 01:55:59;;;;;;;41.88;23.67;;;7.00;99.90;;;;;;4938775;29;20058;-78
2022/01/29 01:58:25;;;;;;;45.22;25.17;;;6.30;99.90;;;;;;4905581;29;20064;-78
2022/01/29 02:00:51;;;;;;;43.67;24.27;;;6.40;99.90;;;;;;4921432;29;20066;-78
2022/01/29 02:03:17;;;;;;;42.05;24.38;;;6.40;99.90;;;;;;4938852;29;20107;-78
2022/01/29 02:05:45;;;;;;;44.90;24.30;;;6.40;99.90;;;;;;4938539;29;20408;-75
2022/01/29 02:08:12;;;;;;;42.55;23.50;;;6.40;99.90;;;;;;4938590;29;20067;-78
2022/01/29 02:10:37;;;;;;;38.67;23.35;;;7.00;99.90;;;;;;4921375;29;20058;-78
2022/01/29 02:13:04;;;;;;;46.25;23.02;;;6.50;99.90;;;;;;4938298;29;20051;-78
2022/01/29 02:15:31;;;;;;;40.72;24.05;;;6.50;99.90;;;;;;4937817;29;20055;-79
2022/01/29 02:17:57;;;;;;;43.08;23.30;;;7.30;99.90;;;;;;4938624;29;20048;-78
2022/01/29 02:20:26;;;;;;;42.00;22.40;;;6.50;99.90;;;;;;4938507;29;20103;-79
2022/01/29 02:22:52;;;;;;;40.85;21.00;;;6.60;99.90;;;;;;4921144;29;20057;-78
2022/01/29 02:25:46;;;;;;;42.78;20.42;;;6.60;99.90;;;;;;4920800;29;20052;-78
2022/01/29 02:28:21;;;;;;;40.53;21.15;;;6.60;99.90;;;;;;4938214;29;20083;-76
2022/01/29 02:30:50;;;;;;;40.08;21.13;;;7.00;99.90;;;;;;4920382;29;20051;-78
2022/01/29 02:33:17;;;;;;;43.58;22.92;;;6.60;99.90;;;;;;4920815;29;20063;-79
2022/01/29 02:35:48;;;;;;;40.78;21.42;;;6.60;99.90;;;;;;4937854;29;20067;-77
2022/01/29 02:38:16;;;;;;;42.05;19.77;;;6.60;99.90;;;;;;4938233;29;20043;-78
2022/01/29 02:40:46;;;;;;;45.03;20.77;;;6.70;99.90;;;;;;4938002;29;20043;-77
2022/01/29 02:43:21;;;;;;;41.33;21.73;;;6.70;99.90;;;;;;4938298;29;20043;-78
2022/01/29 02:45:48;;;;;;;39.97;19.02;;;6.60;99.90;;;;;;4921198;29;20047;-78
2022/01/29 02:48:14;;;;;;;39.58;21.05;;;6.70;99.90;;;;;;4937472;29;20134;-79
2022/01/29 02:50:41;;;;;;;44.58;21.63;;;6.70;99.90;;;;;;4921017;29;20075;-78
2022/01/29 02:53:07;;;;;;;42.03;20.45;;;6.70;99.90;;;;;;4920632;29;20060;-78
2022/01/29 02:55:33;;;;;;;51.03;22.63;;;6.70;99.90;;;;;;4920782;29;20052;-79
2022/01/29 02:57:59;;;;;;;40.88;21.02;;;6.70;99.90;;;;;;4920501;29;20519;-78
2022/01/29 03:00:25;;;;;;;47.15;21.73;;;6.70;99.90;;;;;;4937763;29;20047;-79
2022/01/29 03:02:51;;;;;;;41.97;19.85;;;6.70;99.90;;;;;;4936086;29;20098;-78
2022/01/29 03:05:17;;;;;;;44.03;20.45;;;6.70;99.90;;;;;;4937612;29;20039;-78
2022/01/29 03:07:43;;;;;;;47.95;23.02;;;6.70;99.90;;;;;;4937570;29;20511;-78
2022/01/29 03:10:09;;;;;;;43.45;21.35;;;6.70;99.90;;;;;;4937741;29;20048;-77
2022/01/29 03:12:37;;;;;;;42.90;19.02;;;6.70;99.90;;;;;;4937560;29;20046;-77
2022/01/29 03:15:10;;;;;;;44.17;20.70;;;6.80;99.90;;;;;;4937443;29;20492;-78
2022/01/29 03:17:36;;;;;;;44.30;20.50;;;6.80;99.90;;;;;;4937279;29;20439;-78
2022/01/29 03:20:03;;;;;;;47.38;21.70;;;6.80;99.90;;;;;;4937151;29;20051;-77
2022/01/29 03:22:29;;;;;;;46.60;21.23;;;6.80;99.90;;;;;;4937014;29;20047;-78
2022/01/29 03:24:54;;;;;;;45.45;21.08;;;6.80;99.90;;;;;;4937478;29;20047;-78
2022/01/29 03:27:20;;;;;;;49.28;22.48;;;6.80;99.90;;;;;;4920203;29;20048;-78
2022/01/29 03:29:46;;;;;;;56.60;22.15;;;6.80;99.90;;;;;;4937457;29;20059;-77
2022/01/29 03:32:11;;;;;;;43.45;20.45;;;6.90;99.90;;;;;;4938815;29;20063;-78
2022/01/29 03:34:37;;;;;;;44.05;19.73;;;6.90;99.90;;;;;;4922919;29;20127;-77
2022/01/29 03:37:04;;;;;;;42.05;19.80;;;7.40;99.90;;;;;;4945791;29;20126;-78
2022/01/29 03:39:33;;;;;;;42.00;19.05;;;6.90;99.90;;;;;;4936014;29;20034;-77
2022/01/29 03:42:03;;;;;;;42.15;20.27;;;6.90;99.90;;;;;;4952240;29;20090;-78
2022/01/29 03:44:29;;;;;;;38.50;17.98;;;7.00;99.90;;;;;;4938046;29;20039;-77
2022/01/29 03:46:54;;;;;;;43.95;19.88;;;7.20;99.90;;;;;;4938189;29;20051;-78
2022/01/29 03:49:20;;;;;;;39.35;18.33;;;7.00;99.90;;;;;;4919992;29;20082;-78
2022/01/29 03:51:46;;;;;;;45.35;19.77;;;7.20;99.90;;;;;;4920193;29;20130;-77
2022/01/29 03:54:11;;;;;;;42.90;19.55;;;7.60;99.90;;;;;;4919784;29;20449;-78
2022/01/29 03:56:37;;;;;;;44.45;19.08;;;7.00;99.90;;;;;;4936776;29;20174;-78
2022/01/29 03:59:03;;;;;;;45.28;17.00;;;7.10;99.90;;;;;;4936562;29;20544;-78
2022/01/29 04:01:28;;;;;;;40.75;18.58;;;7.10;99.90;;;;;;4919731;29;20060;-78
2022/01/29 04:03:54;;;;;;;39.13;18.60;;;7.10;99.90;;;;;;4936435;29;20081;-78
2022/01/29 04:06:20;;;;;;;41.53;19.33;;;7.10;99.90;;;;;;4919183;29;20063;-79
2022/01/29 04:08:45;;;;;;;41.38;18.05;;;7.20;99.90;;;;;;4936669;29;20051;-78
2022/01/29 04:11:13;;;;;;;38.60;18.88;;;7.20;99.90;;;;;;4936574;29;20059;-78
2022/01/29 04:13:44;;;;;;;40.17;18.95;;;7.40;99.90;;;;;;4936611;29;20455;-78
2022/01/29 04:16:15;;;;;;;35.88;17.13;;;7.20;99.90;;;;;;4936425;29;20054;-79
2022/01/29 04:18:41;;;;;;;44.95;18.38;;;7.30;99.90;;;;;;4919351;29;20044;-78
2022/01/29 04:21:07;;;;;;;34.75;17.65;;;7.30;99.90;;;;;;4936601;29;20047;-78
2022/01/29 04:23:34;;;;;;;37.55;18.10;;;7.30;99.90;;;;;;4935953;29;20079;-78
2022/01/29 04:26:01;;;;;;;36.08;17.85;;;7.30;99.90;;;;;;4937848;29;20055;-79
2022/01/29 04:28:31;;;;;;;38.83;19.05;;;7.30;99.90;;;;;;4921117;29;20050;-79
2022/01/29 04:31:06;;;;;;;38.85;17.25;;;7.30;99.90;;;;;;4936846;29;20051;-79
2022/01/29 04:33:32;;;;;;;38.42;17.60;;;7.40;99.90;;;;;;4936309;29;20048;-78
2022/01/29 04:36:03;;;;;;;36.25;16.60;;;8.10;99.90;;;;;;4936114;29;20058;-78
2022/01/29 04:38:30;;;;;;;35.07;17.50;;;7.40;99.90;;;;;;4935762;29;20091;-79
2022/01/29 04:40:58;;;;;;;34.25;17.08;;;7.40;99.90;;;;;;4936143;29;20431;-78
2022/01/29 04:43:24;;;;;;;35.80;16.85;;;7.40;99.90;;;;;;4935778;29;20131;-78
2022/01/29 04:45:49;;;;;;;38.60;16.63;;;7.80;99.90;;;;;;4935815;29;20048;-78
2022/01/29 04:48:15;;;;;;;34.03;17.27;;;7.40;99.90;;;;;;4936121;29;20047;-78
2022/01/29 04:50:42;;;;;;;35.45;16.90;;;7.40;99.90;;;;;;4935926;29;20136;-78
2022/01/29 04:53:08;;;;;;;34.13;17.23;;;7.40;99.90;;;;;;4935442;29;20048;-79
2022/01/29 04:55:34;;;;;;;36.10;16.95;;;7.40;99.90;;;;;;4935465;29;20054;-78
2022/01/29 04:58:00;;;;;;;34.65;17.48;;;7.40;99.90;;;;;;4918556;29;20055;-78
2022/01/29 05:00:26;;;;;;;36.63;17.00;;;7.40;99.90;;;;;;4935507;29;20058;-78
2022/01/29 05:02:54;;;;;;;36.38;16.25;;;7.50;99.90;;;;;;4918573;29;20050;-78
2022/01/29 05:05:20;;;;;;;35.22;15.55;;;7.50;99.90;;;;;;4935732;29;20138;-76
2022/01/29 05:07:46;;;;;;;35.47;17.00;;;7.50;99.90;;;;;;4935778;29;20122;-77
2022/01/29 05:10:13;;;;;;;35.97;17.17;;;7.70;99.90;;;;;;4935138;29;20527;-78
2022/01/29 05:12:56;;;;;;;33.85;16.70;;;7.50;99.90;;;;;;4918725;29;20052;-79
2022/01/29 05:28:47;;;;;;;37.63;18.17;;;7.50;99.90;;;;;;4939381;29;20110;-78
2022/01/29 05:31:13;;;;;;;41.67;16.98;;;7.70;99.90;;;;;;4922567;29;20452;-76
2022/01/29 05:33:38;;;;;;;38.65;16.05;;;7.50;99.90;;;;;;4939309;29;20551;-78
2022/01/29 05:36:04;;;;;;;33.40;16.35;;;7.60;99.90;;;;;;4922044;29;20058;-78
2022/01/29 05:38:30;;;;;;;35.22;16.45;;;7.50;99.90;;;;;;4939043;29;20400;-77
2022/01/29 05:40:56;;;;;;;30.27;17.10;;;7.50;99.90;;;;;;4938787;29;20110;-77
2022/01/29 05:43:22;;;;;;;31.60;15.57;;;7.80;99.90;;;;;;4939014;29;20052;-79
2022/01/29 05:45:48;;;;;;;34.28;15.50;;;7.60;99.90;;;;;;4938981;29;20047;-78
2022/01/29 05:48:14;;;;;;;34.15;18.25;;;7.60;99.90;;;;;;4938989;29;20052;-77
2022/01/29 05:50:39;;;;;;;34.65;18.50;;;7.80;99.90;;;;;;4938957;29;20044;-78
2022/01/29 05:53:05;;;;;;;29.40;15.63;;;7.60;99.90;;;;;;4921700;29;20063;-79
2022/01/29 05:55:31;;;;;;;32.92;17.15;;;7.70;99.90;;;;;;4938975;29;20047;-78
2022/01/29 05:57:57;;;;;;;33.83;17.00;;;7.60;99.90;;;;;;4938114;29;20428;-79
2022/01/29 06:00:23;;;;;;;39.28;18.40;;;7.90;99.90;;;;;;4938786;29;20060;-78
2022/01/29 06:03:04;;;;;;;32.65;17.08;;;7.70;99.90;;;;;;4938708;29;20464;-78
2022/01/29 06:05:30;;;;;;;38.75;17.83;;;7.70;99.90;;;;;;4938850;29;20054;-79
2022/01/29 06:07:56;;;;;;;28.63;16.52;;;7.80;99.90;;;;;;4938516;29;20496;-75
2022/01/29 06:10:23;;;;;;;33.63;16.27;;;7.70;99.90;;;;;;4938623;29;20050;-76
2022/01/29 06:13:03;;;;;;;34.58;17.45;;;8.10;99.90;;;;;;4938120;29;20130;-76
2022/01/29 06:15:32;;;;;;;30.58;17.13;;;7.70;99.90;;;;;;4921424;29;20062;-76
2022/01/29 06:17:58;;;;;;;31.95;16.88;;;7.80;99.90;;;;;;4938459;29;20043;-76
2022/01/29 06:20:24;;;;;;;29.42;17.23;;;7.80;99.90;;;;;;4938441;29;20063;-76
2022/01/29 06:22:50;;;;;;;34.50;16.75;;;7.80;99.90;;;;;;4921230;29;20403;-76
2022/01/29 06:25:16;;;;;;;31.80;17.85;;;8.00;99.90;;;;;;4938417;29;20051;-76
2022/01/29 06:27:41;;;;;;;29.27;15.90;;;7.80;99.90;;;;;;4938017;29;20047;-75
2022/01/29 06:30:08;;;;;;;33.33;17.52;;;8.20;99.90;;;;;;4937886;29;20051;-75
2022/01/29 06:32:34;;;;;;;29.33;15.65;;;7.80;99.90;;;;;;4921086;29;20056;-75
2022/01/29 06:34:59;;;;;;;34.70;17.08;;;7.90;99.90;;;;;;4938219;29;20099;-75
2022/01/29 06:37:25;;;;;;;30.33;15.73;;;7.90;99.90;;;;;;4937877;29;20181;-75
2022/01/29 06:39:51;;;;;;;32.00;16.40;;;7.90;99.90;;;;;;4938125;29;20058;-76
2022/01/29 06:42:16;;;;;;;30.73;15.63;;;7.90;99.90;;;;;;4921176;29;20090;-76
2022/01/29 06:44:42;;;;;;;29.25;14.73;;;8.00;99.90;;;;;;4937659;29;20044;-76
2022/01/29 06:47:07;;;;;;;33.20;14.70;;;7.90;99.90;;;;;;4937920;29;20519;-75
2022/01/29 06:49:33;;;;;;;32.25;16.42;;;7.90;99.90;;;;;;4937905;29;20051;-75
2022/01/29 06:51:59;;;;;;;30.52;16.80;;;8.00;99.90;;;;;;4937687;29;20048;-75
2022/01/29 06:54:24;;;;;;;27.30;15.57;;;8.00;99.90;;;;;;4920595;29;20524;-76
2022/01/29 06:56:50;;;;;;;25.80;14.55;;;8.00;99.90;;;;;;4937909;29;20393;-76
2022/01/29 06:59:15;;;;;;;27.50;14.40;;;8.00;99.90;;;;;;4937747;29;20488;-75
2022/01/29 07:01:41;;;;;;;35.35;12.57;;;8.00;99.90;;;;;;4937421;29;20429;-76
2022/01/29 07:04:07;;;;;;;22.33;9.95;;;8.00;99.90;;;;;;4920435;29;20091;-75
2022/01/29 07:06:33;;;;;;;20.70;8.38;;;8.40;99.90;;;;;;4937420;29;20385;-76
2022/01/29 07:08:59;;;;;;;23.23;9.52;;;8.00;99.90;;;;;;4937861;29;20131;-75
2022/01/29 07:11:25;;;;;;;19.23;8.20;;;8.00;99.90;;;;;;4937483;29;20052;-76
2022/01/29 07:14:00;;;;;;;19.67;7.85;;;8.40;99.90;;;;;;4920613;29;20051;-75
2022/01/29 07:16:27;;;;;;;21.23;8.32;;;8.10;99.90;;;;;;4937159;29;20052;-75
2022/01/29 07:18:52;;;;;;;15.02;6.85;;;8.10;99.90;;;;;;4937713;29;20464;-75
2022/01/29 07:21:18;;;;;;;19.45;7.28;;;8.40;99.90;;;;;;4920354;29;20144;-75
2022/01/29 07:23:44;;;;;;;17.48;6.18;;;8.10;99.90;;;;;;4937670;29;20122;-75
2022/01/29 07:26:10;;;;;;;16.80;6.85;;;8.30;99.90;;;;;;4937960;29;20066;-75
2022/01/29 07:28:35;;;;;;;21.88;7.13;;;8.10;99.90;;;;;;4939605;29;20102;-75
2022/01/29 07:31:01;;;;;;;18.73;6.90;;;8.20;99.90;;;;;;4930474;29;20039;-75
2022/01/29 07:33:28;;;;;;;16.42;7.03;;;8.10;99.90;;;;;;4936407;29;20123;-74
2022/01/29 07:35:55;;;;;;;20.10;6.38;;;8.10;99.90;;;;;;4946883;29;20050;-74
2022/01/29 07:38:21;;;;;;;17.10;6.88;;;8.20;99.90;;;;;;4905575;29;20507;-75
2022/01/29 07:40:47;;;;;;;19.17;6.32;;;8.20;99.90;;;;;;4921672;29;20044;-75
2022/01/29 07:43:12;;;;;;;13.88;6.20;;;8.40;99.90;;;;;;4939246;29;20456;-75
2022/01/29 07:45:38;;;;;;;18.02;6.85;;;8.70;99.90;;;;;;4937610;29;20124;-76
2022/01/29 07:48:04;;;;;;;21.90;5.30;;;8.20;99.90;;;;;;4936588;29;20047;-75
2022/01/29 07:50:30;;;;;;;17.85;5.55;;;8.20;99.90;;;;;;4919360;29;20043;-75
2022/01/29 07:52:57;;;;;;;11.75;5.20;;;8.30;99.90;;;;;;4936561;29;20460;-75
2022/01/29 07:55:23;;;;;;;20.13;5.60;;;8.70;99.90;;;;;;4919897;29;20248;-74
2022/01/29 07:57:50;;;;;;;14.48;5.07;;;8.20;99.90;;;;;;4936882;29;20048;-76
2022/01/29 08:00:16;;;;;;;12.98;5.25;;;8.20;99.90;;;;;;4936653;29;20516;-76
2022/01/29 08:02:41;;;;;;;12.93;4.82;;;8.20;99.90;;;;;;4939578;29;20027;-76
2022/01/29 08:05:08;;;;;;;12.18;4.88;;;8.20;99.90;;;;;;4944335;29;20051;-76
2022/01/29 08:07:33;;;;;;;9.48;3.58;;;8.20;99.90;;;;;;4948813;29;20130;-77
2022/01/29 08:10:15;;;;;;;16.83;5.32;;;8.10;99.90;;;;;;4928027;29;20114;-79
2022/01/29 08:12:40;;;;;;;12.25;4.30;;;8.20;99.90;;;;;;4948756;29;20046;-77
2022/01/29 08:15:12;;;;;;;12.07;3.90;;;8.20;99.90;;;;;;4953305;23;20060;-79
2022/01/29 08:17:50;;;;;;;13.85;4.72;;;8.10;99.90;;;;;;4946866;29;20126;-77
2022/01/29 08:20:16;;;;;;;14.13;5.43;;;8.00;99.90;;;;;;4912435;29;20052;-77
2022/01/29 08:22:47;;;;;;;12.63;4.72;;;8.10;99.90;;;;;;4947750;29;20113;-75
2022/01/29 08:25:19;;;;;;;11.50;5.07;;;8.70;99.90;;;;;;4944330;29;20044;-77
2022/01/29 08:27:47;;;;;;;11.23;4.75;;;8.10;99.90;;;;;;4943848;29;20136;-76
2022/01/29 08:30:13;;;;;;;12.85;5.22;;;8.10;99.90;;;;;;4946760;29;20420;-75
2022/01/29 08:32:48;;;;;;;14.93;5.43;;;8.20;99.90;;;;;;4944934;29;20043;-77
2022/01/29 08:35:15;;;;;;;13.85;5.35;;;8.10;99.90;;;;;;4945530;29;20118;-77
2022/01/29 08:37:41;;;;;;;13.55;5.22;;;8.70;99.90;;;;;;4944870;29;20055;-76
2022/01/29 08:40:11;;;;;;;13.63;5.38;;;8.10;99.90;;;;;;4944866;29;20035;-77
2022/01/29 08:42:41;;;;;;;16.02;4.78;;;8.10;99.90;;;;;;4944566;29;20395;-76
2022/01/29 08:45:08;;;;;;;13.73;6.57;;;8.10;99.90;;;;;;4944779;29;20399;-76
2022/01/29 08:47:33;;;;;;;16.77;5.00;;;8.10;99.90;;;;;;4944227;29;20469;-77
2022/01/29 08:50:12;;;;;;;11.77;4.53;;;8.20;99.90;;;;;;4945638;29;20046;-80
2022/01/29 08:52:38;;;;;;;13.73;5.65;;;9.40;99.90;;;;;;4944171;29;20051;-77
2022/01/29 08:55:06;;;;;;;13.23;5.38;;;8.20;99.90;;;;;;4944880;29;20077;-78
2022/01/29 08:57:32;;;;;;;14.25;6.57;;;8.20;99.90;;;;;;4946151;29;20407;-76
2022/01/29 08:59:58;;;;;;;22.88;5.60;;;8.30;99.90;;;;;;4911252;28;20052;-78
2022/01/29 09:02:23;;;;;;;14.00;5.65;;;8.40;99.90;;;;;;4944378;29;20086;-75
2022/01/29 09:04:54;;;;;;;13.55;5.65;;;8.70;99.90;;;;;;4945834;29;20436;-77
2022/01/29 09:07:32;;;;;;;10.88;4.47;;;8.30;99.90;;;;;;4926621;29;20083;-78
2022/01/29 09:09:58;;;;;;;16.83;4.38;;;8.40;99.90;;;;;;4944281;29;20035;-77
2022/01/29 09:12:24;;;;;;;11.93;5.18;;;8.30;99.90;;;;;;4943930;29;20039;-76
2022/01/29 09:14:50;;;;;;;11.65;4.68;;;8.40;99.90;;;;;;4923643;29;20058;-75
2022/01/29 09:17:16;;;;;;;11.63;3.83;;;8.40;99.90;;;;;;4935784;29;20044;-77
2022/01/29 09:19:42;;;;;;;15.07;4.88;;;8.50;99.90;;;;;;4926019;29;20483;-77
2022/01/29 09:22:08;;;;;;;9.82;4.22;;;9.30;99.90;;;;;;4930038;29;20047;-78
2022/01/29 09:24:34;;;;;;;13.63;4.20;;;9.00;99.90;;;;;;4945415;29;20051;-76
2022/01/29 09:27:00;;;;;;;11.77;4.90;;;8.60;99.90;;;;;;4943716;29;20114;-76
2022/01/29 09:29:26;;;;;;;12.20;3.90;;;8.60;99.90;;;;;;4945399;29;20391;-75
2022/01/29 09:31:51;;;;;;;11.25;4.07;;;8.60;99.90;;;;;;4942986;29;20114;-76
2022/01/29 09:34:18;;;;;;;11.38;3.78;;;8.90;99.90;;;;;;4935039;29;20503;-76
2022/01/29 09:36:43;;;;;;;8.98;3.28;;;8.70;99.90;;;;;;4954670;29;20091;-75
2022/01/29 09:39:09;;;;;;;10.30;3.35;;;8.70;99.90;;;;;;4937687;29;20051;-75
2022/01/29 09:41:37;;;;;;;15.93;3.85;;;8.70;99.90;;;;;;4954573;29;20043;-77
2022/01/29 09:44:04;;;;;;;7.47;3.17;;;8.70;99.90;;;;;;4954785;29;20519;-77
2022/01/29 09:46:32;;;;;;;7.88;3.47;;;8.80;99.90;;;;;;4956435;29;20051;-78
2022/01/29 09:48:58;;;;;;;8.98;2.60;;;8.80;99.90;;;;;;4954296;29;20468;-77
2022/01/29 09:51:26;;;;;;;9.00;3.13;;;8.90;99.90;;;;;;4954484;29;20047;-78
2022/01/29 09:53:51;;;;;;;7.55;2.97;;;8.90;99.90;;;;;;4955707;29;20080;-77
2022/01/29 09:56:17;;;;;;;7.10;3.17;;;8.90;99.90;;;;;;4938163;29;20420;-78
2022/01/29 09:58:43;;;;;;;11.85;3.28;;;9.00;99.90;;;;;;4937723;29;20087;-78
2022/01/29 10:01:09;;;;;;;8.98;3.03;;;9.00;99.90;;;;;;4955421;29;20050;-78
2022/01/29 10:03:35;;;;;;;9.73;3.05;;;9.00;99.90;;;;;;4955459;29;20058;-79
2022/01/29 10:06:02;;;;;;;8.75;3.25;;;9.10;99.90;;;;;;4938382;29;20464;-76
2022/01/29 10:08:29;;;;;;;7.75;2.50;;;9.10;99.90;;;;;;4954035;29;20043;-76
2022/01/29 10:10:57;;;;;;;16.05;3.22;;;9.10;99.90;;;;;;4936733;29;20510;-78
2022/01/29 10:13:25;;;;;;;10.30;3.10;;;9.20;99.90;;;;;;4938625;29;20526;-77
2022/01/29 10:16:02;;;;;;;9.25;3.17;;;9.20;99.90;;;;;;4939048;29;20063;-79
2022/01/29 10:18:27;;;;;;;9.27;3.55;;;9.10;99.90;;;;;;4924161;29;20055;-77
2022/01/29 10:21:07;;;;;;;10.18;3.47;;;9.20;99.90;;;;;;4923549;29;20051;-77
2022/01/29 10:23:33;;;;;;;9.90;3.22;;;9.70;99.90;;;;;;4939890;29;20055;-76
2022/01/29 10:26:00;;;;;;;6.82;2.67;;;9.20;99.90;;;;;;4939179;29;20047;-79
2022/01/29 10:28:26;;;;;;;6.15;2.60;;;9.20;99.90;;;;;;4940201;29;20389;-79
2022/01/29 10:30:58;;;;;;;7.40;2.88;;;9.20;99.90;;;;;;4957418;29;20058;-79
2022/01/29 10:33:29;;;;;;;6.38;2.75;;;9.20;99.90;;;;;;4939679;29;20058;-78
2022/01/29 10:36:07;;;;;;;8.33;3.13;;;9.20;99.90;;;;;;4957393;29;20051;-76
2022/01/29 10:39:17;;;;;;;6.55;2.78;;;9.70;99.90;;;;;;4973198;23;20076;-77
2022/01/29 10:41:52;;;;;;;6.93;2.83;;;9.10;99.90;;;;;;4939459;29;20039;-76
2022/01/29 10:44:19;;;;;;;11.20;2.60;;;10.50;99.90;;;;;;4953170;29;20086;-77
2022/01/29 10:46:53;;;;;;;8.30;2.50;;;9.40;99.90;;;;;;4945612;29;20047;-76
2022/01/29 10:49:27;;;;;;;9.90;2.63;;;9.50;99.90;;;;;;4944958;29;20440;-80
2022/01/29 10:52:03;;;;;;;10.20;2.72;;;9.40;99.90;;;;;;4928605;29;20071;-76
2022/01/29 10:54:31;;;;;;;4.82;2.00;;;9.40;99.90;;;;;;4945713;29;20503;-77
2022/01/29 10:57:05;;;;;;;8.68;2.13;;;9.40;99.90;;;;;;4942381;29;20044;-77
2022/01/29 10:59:36;;;;;;;8.13;2.50;;;9.40;99.90;;;;;;4941346;29;20042;-74
2022/01/29 11:02:08;;;;;;;8.48;2.70;;;9.40;99.90;;;;;;4943873;29;20055;-77
2022/01/29 11:04:36;;;;;;;10.68;3.38;;;9.40;99.90;;;;;;4945665;29;20086;-73
2022/01/29 11:07:07;;;;;;;7.78;2.67;;;9.40;99.90;;;;;;4945432;29;20039;-74
2022/01/29 11:09:33;;;;;;;12.18;3.20;;;9.50;99.90;;;;;;4931331;29;20040;-75
2022/01/29 11:12:03;;;;;;;8.48;3.05;;;9.40;99.90;;;;;;4928787;29;20060;-73
2022/01/29 11:14:31;;;;;;;7.68;2.45;;;9.40;99.90;;;;;;4964166;29;20024;-74
2022/01/29 11:16:59;;;;;;;6.40;2.25;;;9.40;99.90;;;;;;4959276;29;20043;-73
2022/01/29 11:19:24;;;;;;;5.00;2.17;;;9.40;99.90;;;;;;4932664;29;20060;-74
2022/01/29 11:21:53;;;;;;;8.27;2.67;;;9.40;99.90;;;;;;4947931;29;20059;-73
2022/01/29 11:24:23;;;;;;;5.05;2.03;;;9.50;99.90;;;;;;4914315;29;20043;-72
2022/01/29 11:26:50;;;;;;;5.22;1.85;;;9.50;99.90;;;;;;4944771;29;20051;-72
2022/01/29 11:29:30;;;;;;;5.85;2.17;;;9.50;99.90;;;;;;4913633;29;20046;-73
2022/01/29 11:32:35;;;;;;;6.47;1.90;;;9.50;99.90;;;;;;4916149;29;20074;-73
2022/01/29 11:35:09;;;;;;;4.78;1.85;;;9.60;99.90;;;;;;4871275;29;20111;-72
2022/01/29 11:38:15;;;;;;;6.75;1.77;;;9.60;99.90;;;;;;4855255;29;20045;-75
2022/01/29 11:40:57;;;;;;;5.85;1.80;;;9.60;99.90;;;;;;4851833;29;20448;-74
2022/01/29 11:43:27;;;;;;;9.27;2.25;;;9.60;99.90;;;;;;4865959;29;20053;-75
2022/01/29 11:46:11;;;;;;;6.15;2.15;;;9.70;99.90;;;;;;4869739;29;20116;-75
2022/01/29 11:48:50;;;;;;;3.65;1.58;;;9.70;99.90;;;;;;4865277;29;20052;-75
2022/01/29 11:51:39;;;;;;;6.38;1.88;;;9.70;99.90;;;;;;4862029;29;20120;-74
2022/01/29 11:54:06;;;;;;;6.72;2.40;;;9.70;99.90;;;;;;4860464;29;20092;-73
2022/01/29 11:56:41;;;;;;;6.88;2.05;;;9.70;99.90;;;;;;4867656;29;20538;-73
2022/01/29 11:59:27;;;;;;;15.95;2.15;;;9.70;99.90;;;;;;4862551;29;20072;-73
2022/01/29 12:01:59;;;;;;;5.68;1.45;;;9.70;99.90;;;;;;4853164;29;20119;-73
2022/01/29 12:04:47;;;;;;;6.45;1.80;;;9.70;99.90;;;;;;4868443;29;20059;-73
2022/01/29 12:07:15;;;;;;;4.13;1.48;;;9.70;99.90;;;;;;4945719;29;20047;-72
2022/01/29 12:09:43;;;;;;;6.35;1.38;;;9.70;99.90;;;;;;4944698;29;20043;-72
2022/01/29 12:12:16;;;;;;;8.10;1.55;;;10.10;99.90;;;;;;4926599;29;20040;-73
2022/01/29 12:14:42;;;;;;;4.20;1.67;;;9.80;99.90;;;;;;4944551;29;20039;-71
2022/01/29 12:17:08;;;;;;;6.47;1.75;;;9.80;99.90;;;;;;4943901;29;20039;-73
2022/01/29 12:19:45;;;;;;;6.93;2.28;;;9.80;99.90;;;;;;4928963;29;20048;-75
2022/01/29 12:22:19;;;;;;;6.03;1.35;;;9.90;99.90;;;;;;4929317;29;20059;-74
2022/01/29 12:24:55;;;;;;;6.00;1.88;;;9.90;99.90;;;;;;4949214;29;20055;-76
2022/01/29 12:27:23;;;;;;;10.07;1.60;;;9.90;99.90;;;;;;4934109;29;20083;-76
2022/01/29 12:29:50;;;;;;;6.53;1.88;;;9.90;99.90;;;;;;4935815;29;20123;-72
2022/01/29 12:32:16;;;;;;;4.50;1.20;;;10.20;99.90;;;;;;4922240;29;20043;-71
2022/01/29 12:34:52;;;;;;;5.25;1.73;;;10.00;99.90;;;;;;4955242;28;20043;-74
2022/01/29 12:37:21;;;;;;;6.75;1.27;;;10.00;99.90;;;;;;4954907;29;20051;-74
2022/01/29 12:39:49;;;;;;;3.67;1.35;;;10.10;99.90;;;;;;4937715;29;20059;-73
2022/01/29 12:44:54;;;;;;;3.80;1.15;;;10.50;99.90;;;;;;4954721;29;20392;-73
2022/01/29 12:47:31;;;;;;;6.35;1.20;;;10.20;99.90;;;;;;4954637;29;20151;-74
2022/01/29 12:49:58;;;;;;;4.88;1.40;;;10.20;99.90;;;;;;4943770;29;20042;-74
2022/01/29 12:52:25;;;;;;;6.65;1.38;;;10.20;99.90;;;;;;4929107;29;20143;-73
2022/01/29 12:54:59;;;;;;;6.65;0.95;;;10.30;99.90;;;;;;4937078;29;20082;-75
2022/01/29 12:57:41;;;;;;;6.55;1.30;;;10.30;99.90;;;;;;4937499;29;20047;-75
2022/01/29 13:00:10;;;;;;;7.68;1.75;;;10.30;99.90;;;;;;4925420;29;20050;-74
2022/01/29 13:02:36;;;;;;;10.07;1.45;;;10.30;99.90;;;;;;4927692;29;20059;-75
2022/01/29 13:05:02;;;;;;;6.28;1.48;;;10.50;99.90;;;;;;4930081;29;20187;-75